Terminal Aerodrome Forecast
Issued by NWS Shreveport, LA

Home | Current Version | Previous Version | Text Only | Print | Product List | Glossary On
Versions: 1 2 3 4 5 6 7 8 9 10 11 12 13 14 15 16 17 18
250
FTUS44 KSHV 261728
TAFMLU
TAF
KMLU 261728Z 2618/2718 08005KT P6SM VCTS SCT025CB
     FM270100 04003KT P6SM FEW120 SCT250
     FM271000 VRB03KT P6SM SCT010
      TEMPO 2711/2714 BKN010
     FM271500 07003KT P6SM SCT030=

USA.gov is the U.S. government's official web portal to all federal, state and local government web resources and services.